sensor_id;sensor_type;location;lat;lon;timestamp;temperature;humidity
43641;DHT22;72791;52.546;13.570;2023-11-21T00:01:24;6.80;99.90
43641;DHT22;72791;52.546;13.570;2023-11-21T00:03:50;6.80;99.90
43641;DHT22;72791;52.546;13.570;2023-11-21T00:06:15;6.80;99.90
43641;DHT22;72791;52.546;13.570;2023-11-21T00:08:41;6.70;99.90
43641;DHT22;72791;52.546;13.570;2023-11-21T00:11:08;6.70;99.90
43641;DHT22;72791;52.546;13.570;2023-11-21T00:13:34;6.60;99.90
43641;DHT22;72791;52.546;13.570;2023-11-21T00:16:00;6.60;99.90
43641;DHT22;72791;52.546;13.570;2023-11-21T00:18:26;6.60;99.90
43641;DHT22;72791;52.546;13.570;2023-11-21T00:20:51;6.50;99.90
43641;DHT22;72791;52.546;13.570;2023-11-21T00:23:17;6.50;99.90
43641;DHT22;72791;52.546;13.570;2023-11-21T00:25:43;6.50;99.90
43641;DHT22;72791;52.546;13.570;2023-11-21T00:28:09;6.40;99.90
43641;DHT22;72791;52.546;13.570;2023-11-21T00:30:35;6.50;99.90
43641;DHT22;72791;52.546;13.570;2023-11-21T00:33:01;6.50;99.90
43641;DHT22;72791;52.546;13.570;2023-11-21T00:35:26;6.40;99.90
43641;DHT22;72791;52.546;13.570;2023-11-21T00:37:52;6.30;99.90
43641;DHT22;72791;52.546;13.570;2023-11-21T00:40:18;6.20;99.90
43641;DHT22;72791;52.546;13.570;2023-11-21T00:42:47;6.10;99.90
43641;DHT22;72791;52.546;13.570;2023-11-21T00:45:14;6.10;99.90
43641;DHT22;72791;52.546;13.570;2023-11-21T00:47:40;6.10;99.90
43641;DHT22;72791;52.546;13.570;2023-11-21T00:50:07;6.00;99.90
43641;DHT22;72791;52.546;13.570;2023-11-21T00:52:33;6.00;99.90
43641;DHT22;72791;52.546;13.570;2023-11-21T00:54:59;5.90;99.90
43641;DHT22;72791;52.546;13.570;2023-11-21T00:57:26;5.90;99.90
43641;DHT22;72791;52.546;13.570;2023-11-21T00:59:52;5.90;99.90
43641;DHT22;72791;52.546;13.570;2023-11-21T01:02:18;5.90;99.90
43641;DHT22;72791;52.546;13.570;2023-11-21T01:04:44;5.90;99.90
43641;DHT22;72791;52.546;13.570;2023-11-21T01:07:10;5.90;99.90
43641;DHT22;72791;52.546;13.570;2023-11-21T01:09:36;5.80;99.90
43641;DHT22;72791;52.546;13.570;2023-11-21T01:12:02;5.80;99.90
43641;DHT22;72791;52.546;13.570;2023-11-21T01:14:28;5.70;99.90
43641;DHT22;72791;52.546;13.570;2023-11-21T01:16:54;5.70;99.90
43641;DHT22;72791;52.546;13.570;2023-11-21T01:19:20;5.70;99.90
43641;DHT22;72791;52.546;13.570;2023-11-21T01:21:45;5.60;99.90
43641;DHT22;72791;52.546;13.570;2023-11-21T01:24:13;5.60;99.90
43641;DHT22;72791;52.546;13.570;2023-11-21T01:26:39;5.60;99.90
43641;DHT22;72791;52.546;13.570;2023-11-21T01:29:05;5.50;99.90
43641;DHT22;72791;52.546;13.570;2023-11-21T01:31:30;5.50;99.90
43641;DHT22;72791;52.546;13.570;2023-11-21T01:33:56;5.40;99.90
43641;DHT22;72791;52.546;13.570;2023-11-21T01:36:22;5.40;99.90
43641;DHT22;72791;52.546;13.570;2023-11-21T01:38:49;5.50;99.90
43641;DHT22;72791;52.546;13.570;2023-11-21T01:41:15;5.40;99.90
43641;DHT22;72791;52.546;13.570;2023-11-21T01:43:41;5.40;99.90
43641;DHT22;72791;52.546;13.570;2023-11-21T01:46:08;5.30;99.90
43641;DHT22;72791;52.546;13.570;2023-11-21T01:48:34;5.40;99.90
43641;DHT22;72791;52.546;13.570;2023-11-21T01:51:01;5.30;99.90
43641;DHT22;72791;52.546;13.570;2023-11-21T01:53:27;5.40;99.90
43641;DHT22;72791;52.546;13.570;2023-11-21T01:55:55;5.40;99.90
43641;DHT22;72791;52.546;13.570;2023-11-21T01:58:21;5.30;99.90
43641;DHT22;72791;52.546;13.570;2023-11-21T02:00:48;5.30;99.90
43641;DHT22;72791;52.546;13.570;2023-11-21T02:03:16;5.30;99.90
43641;DHT22;72791;52.546;13.570;2023-11-21T02:05:42;5.30;99.90
43641;DHT22;72791;52.546;13.570;2023-11-21T02:08:08;5.30;99.90
43641;DHT22;72791;52.546;13.570;2023-11-21T02:10:35;5.30;99.90
43641;DHT22;72791;52.546;13.570;2023-11-21T02:13:02;5.20;99.90
43641;DHT22;72791;52.546;13.570;2023-11-21T02:15:29;5.30;99.90
43641;DHT22;72791;52.546;13.570;2023-11-21T02:17:55;5.30;99.90
43641;DHT22;72791;52.546;13.570;2023-11-21T02:20:23;5.20;99.90
43641;DHT22;72791;52.546;13.570;2023-11-21T02:22:51;5.20;99.90
43641;DHT22;72791;52.546;13.570;2023-11-21T02:25:24;5.20;99.90
43641;DHT22;72791;52.546;13.570;2023-11-21T02:27:50;5.20;99.90
43641;DHT22;72791;52.546;13.570;2023-11-21T02:30:16;5.10;99.90
43641;DHT22;72791;52.546;13.570;2023-11-21T02:32:42;5.00;99.90
43641;DHT22;72791;52.546;13.570;2023-11-21T02:35:09;4.90;99.90
43641;DHT22;72791;52.546;13.570;2023-11-21T02:37:34;4.90;99.90
43641;DHT22;72791;52.546;13.570;2023-11-21T02:40:01;4.90;99.90
43641;DHT22;72791;52.546;13.570;2023-11-21T02:42:29;4.90;99.90
43641;DHT22;72791;52.546;13.570;2023-11-21T02:44:55;4.80;99.90
43641;DHT22;72791;52.546;13.570;2023-11-21T02:47:22;4.90;99.90
43641;DHT22;72791;52.546;13.570;2023-11-21T02:49:49;4.90;99.90
43641;DHT22;72791;52.546;13.570;2023-11-21T02:52:16;4.90;99.90
43641;DHT22;72791;52.546;13.570;2023-11-21T02:54:42;4.80;99.90
43641;DHT22;72791;52.546;13.570;2023-11-21T02:57:08;4.80;99.90
43641;DHT22;72791;52.546;13.570;2023-11-21T02:59:35;4.80;99.90
43641;DHT22;72791;52.546;13.570;2023-11-21T03:02:03;4.80;99.90
43641;DHT22;72791;52.546;13.570;2023-11-21T03:04:29;4.70;99.90
43641;DHT22;72791;52.546;13.570;2023-11-21T03:06:57;4.80;99.90
43641;DHT22;72791;52.546;13.570;2023-11-21T03:09:23;4.70;99.90
43641;DHT22;72791;52.546;13.570;2023-11-21T03:11:48;4.70;99.90
43641;DHT22;72791;52.546;13.570;2023-11-21T03:14:14;4.70;99.90
43641;DHT22;72791;52.546;13.570;2023-11-21T03:16:40;4.70;99.90
43641;DHT22;72791;52.546;13.570;2023-11-21T03:19:08;4.70;99.90
43641;DHT22;72791;52.546;13.570;2023-11-21T03:21:33;4.70;99.90
43641;DHT22;72791;52.546;13.570;2023-11-21T03:23:59;4.70;99.90
43641;DHT22;72791;52.546;13.570;2023-11-21T03:26:25;4.70;99.90
43641;DHT22;72791;52.546;13.570;2023-11-21T03:28:51;4.70;99.90
43641;DHT22;72791;52.546;13.570;2023-11-21T03:31:19;4.60;99.90
43641;DHT22;72791;52.546;13.570;2023-11-21T03:33:45;4.60;99.90
43641;DHT22;72791;52.546;13.570;2023-11-21T03:36:11;4.60;99.90
43641;DHT22;72791;52.546;13.570;2023-11-21T03:38:37;4.60;99.90
43641;DHT22;72791;52.546;13.570;2023-11-21T03:41:03;4.60;99.90
43641;DHT22;72791;52.546;13.570;2023-11-21T03:43:29;4.60;99.90
43641;DHT22;72791;52.546;13.570;2023-11-21T03:45:54;4.50;99.90
43641;DHT22;72791;52.546;13.570;2023-11-21T03:48:20;4.40;99.90
43641;DHT22;72791;52.546;13.570;2023-11-21T03:50:46;4.40;99.90
43641;DHT22;72791;52.546;13.570;2023-11-21T03:53:12;4.40;99.90
43641;DHT22;72791;52.546;13.570;2023-11-21T03:55:38;4.40;99.90
43641;DHT22;72791;52.546;13.570;2023-11-21T03:58:04;4.40;99.90
43641;DHT22;72791;52.546;13.570;2023-11-21T04:00:31;4.30;99.90
43641;DHT22;72791;52.546;13.570;2023-11-21T04:02:57;4.40;99.90
43641;DHT22;72791;52.546;13.570;2023-11-21T04:05:23;4.40;99.90
43641;DHT22;72791;52.546;13.570;2023-11-21T04:07:51;4.40;99.90
43641;DHT22;72791;52.546;13.570;2023-11-21T04:10:17;4.40;99.90
43641;DHT22;72791;52.546;13.570;2023-11-21T04:12:43;4.40;99.90
43641;DHT22;72791;52.546;13.570;2023-11-21T04:15:10;4.30;99.90
43641;DHT22;72791;52.546;13.570;2023-11-21T04:17:36;4.20;99.90
43641;DHT22;72791;52.546;13.570;2023-11-21T04:20:03;4.20;99.90
43641;DHT22;72791;52.546;13.570;2023-11-21T04:22:33;4.10;99.90
43641;DHT22;72791;52.546;13.570;2023-11-21T04:24:59;4.10;99.90
43641;DHT22;72791;52.546;13.570;2023-11-21T04:27:25;4.10;99.90
43641;DHT22;72791;52.546;13.570;2023-11-21T04:29:50;4.10;99.90
43641;DHT22;72791;52.546;13.570;2023-11-21T04:32:16;4.10;99.90
43641;DHT22;72791;52.546;13.570;2023-11-21T04:34:42;4.10;99.90
43641;DHT22;72791;52.546;13.570;2023-11-21T04:37:08;4.10;99.90
43641;DHT22;72791;52.546;13.570;2023-11-21T04:39:36;4.10;99.90
43641;DHT22;72791;52.546;13.570;2023-11-21T04:42:01;4.20;99.90
43641;DHT22;72791;52.546;13.570;2023-11-21T04:44:27;4.10;99.90
43641;DHT22;72791;52.546;13.570;2023-11-21T04:46:53;4.10;99.90
43641;DHT22;72791;52.546;13.570;2023-11-21T04:49:19;4.20;99.90
43641;DHT22;72791;52.546;13.570;2023-11-21T04:51:46;4.20;99.90
43641;DHT22;72791;52.546;13.570;2023-11-21T04:54:11;4.20;99.90
43641;DHT22;72791;52.546;13.570;2023-11-21T04:56:38;4.30;99.90
43641;DHT22;72791;52.546;13.570;2023-11-21T04:59:03;4.30;99.90
43641;DHT22;72791;52.546;13.570;2023-11-21T05:01:30;4.30;99.90
43641;DHT22;72791;52.546;13.570;2023-11-21T05:03:55;4.30;99.90
43641;DHT22;72791;52.546;13.570;2023-11-21T05:06:22;4.30;99.90
43641;DHT22;72791;52.546;13.570;2023-11-21T05:08:49;4.40;99.90
43641;DHT22;72791;52.546;13.570;2023-11-21T05:11:25;4.40;99.90
43641;DHT22;72791;52.546;13.570;2023-11-21T05:13:51;4.40;99.90
43641;DHT22;72791;52.546;13.570;2023-11-21T05:16:17;4.40;99.90
43641;DHT22;72791;52.546;13.570;2023-11-21T05:18:42;4.40;99.90
43641;DHT22;72791;52.546;13.570;2023-11-21T05:21:08;4.30;99.90
43641;DHT22;72791;52.546;13.570;2023-11-21T05:23:35;4.30;99.90
43641;DHT22;72791;52.546;13.570;2023-11-21T05:26:00;4.30;99.90
43641;DHT22;72791;52.546;13.570;2023-11-21T05:28:27;4.40;99.90
43641;DHT22;72791;52.546;13.570;2023-11-21T05:30:53;4.30;99.90
43641;DHT22;72791;52.546;13.570;2023-11-21T05:33:19;4.30;99.90
43641;DHT22;72791;52.546;13.570;2023-11-21T05:35:45;4.30;99.90
43641;DHT22;72791;52.546;13.570;2023-11-21T05:38:10;4.30;99.90
43641;DHT22;72791;52.546;13.570;2023-11-21T05:40:37;4.30;99.90
43641;DHT22;72791;52.546;13.570;2023-11-21T05:43:03;4.20;99.90
43641;DHT22;72791;52.546;13.570;2023-11-21T05:45:31;4.20;99.90
43641;DHT22;72791;52.546;13.570;2023-11-21T05:47:58;4.30;99.90
43641;DHT22;72791;52.546;13.570;2023-11-21T05:50:24;4.30;99.90
43641;DHT22;72791;52.546;13.570;2023-11-21T05:52:50;4.20;99.90
43641;DHT22;72791;52.546;13.570;2023-11-21T05:55:16;4.20;99.90
43641;DHT22;72791;52.546;13.570;2023-11-21T05:57:43;4.30;99.90
43641;DHT22;72791;52.546;13.570;2023-11-21T06:00:12;4.30;99.90
43641;DHT22;72791;52.546;13.570;2023-11-21T06:02:44;4.20;99.90
43641;DHT22;72791;52.546;13.570;2023-11-21T06:05:11;4.30;99.90
43641;DHT22;72791;52.546;13.570;2023-11-21T06:07:37;4.30;99.90
43641;DHT22;72791;52.546;13.570;2023-11-21T06:10:04;4.30;99.90
43641;DHT22;72791;52.546;13.570;2023-11-21T06:12:40;4.20;99.90
43641;DHT22;72791;52.546;13.570;2023-11-21T06:15:09;4.20;99.90
43641;DHT22;72791;52.546;13.570;2023-11-21T06:17:36;4.30;99.90
43641;DHT22;72791;52.546;13.570;2023-11-21T06:20:09;4.30;99.90
43641;DHT22;72791;52.546;13.570;2023-11-21T06:22:37;4.20;99.90
43641;DHT22;72791;52.546;13.570;2023-11-21T06:25:05;4.30;99.90
43641;DHT22;72791;52.546;13.570;2023-11-21T06:27:36;4.30;99.90
43641;DHT22;72791;52.546;13.570;2023-11-21T06:30:02;4.20;99.90
43641;DHT22;72791;52.546;13.570;2023-11-21T06:32:29;4.30;99.90
43641;DHT22;72791;52.546;13.570;2023-11-21T06:34:56;4.30;99.90
43641;DHT22;72791;52.546;13.570;2023-11-21T06:37:26;4.30;99.90
43641;DHT22;72791;52.546;13.570;2023-11-21T06:39:52;4.30;99.90
43641;DHT22;72791;52.546;13.570;2023-11-21T06:42:18;4.30;99.90
43641;DHT22;72791;52.546;13.570;2023-11-21T06:44:47;4.30;99.90
43641;DHT22;72791;52.546;13.570;2023-11-21T06:47:14;4.30;99.90
43641;DHT22;72791;52.546;13.570;2023-11-21T06:49:41;4.30;99.90
43641;DHT22;72791;52.546;13.570;2023-11-21T06:52:06;4.30;99.90
43641;DHT22;72791;52.546;13.570;2023-11-21T06:54:34;4.30;99.90
43641;DHT22;72791;52.546;13.570;2023-11-21T06:57:00;4.30;99.90
43641;DHT22;72791;52.546;13.570;2023-11-21T06:59:28;4.30;99.90
43641;DHT22;72791;52.546;13.570;2023-11-21T07:01:54;4.30;99.90
43641;DHT22;72791;52.546;13.570;2023-11-21T07:04:20;4.30;99.90
43641;DHT22;72791;52.546;13.570;2023-11-21T07:06:46;4.30;99.90
43641;DHT22;72791;52.546;13.570;2023-11-21T07:09:13;4.30;99.90
43641;DHT22;72791;52.546;13.570;2023-11-21T07:11:39;4.30;99.90
43641;DHT22;72791;52.546;13.570;2023-11-21T07:14:04;4.20;99.90
43641;DHT22;72791;52.546;13.570;2023-11-21T07:16:37;4.30;99.90
43641;DHT22;72791;52.546;13.570;2023-11-21T07:19:06;4.20;99.90
43641;DHT22;72791;52.546;13.570;2023-11-21T07:21:34;4.30;99.90
43641;DHT22;72791;52.546;13.570;2023-11-21T07:24:00;4.30;99.90
43641;DHT22;72791;52.546;13.570;2023-11-21T07:26:32;4.30;99.90
43641;DHT22;72791;52.546;13.570;2023-11-21T07:29:18;4.20;99.90
43641;DHT22;72791;52.546;13.570;2023-11-21T07:31:44;4.20;99.90
43641;DHT22;72791;52.546;13.570;2023-11-21T07:34:09;4.20;99.90
43641;DHT22;72791;52.546;13.570;2023-11-21T07:36:37;4.20;99.90
43641;DHT22;72791;52.546;13.570;2023-11-21T07:39:03;4.20;99.90
43641;DHT22;72791;52.546;13.570;2023-11-21T07:41:32;4.20;99.90
43641;DHT22;72791;52.546;13.570;2023-11-21T07:43:58;4.20;99.90
43641;DHT22;72791;52.546;13.570;2023-11-21T07:46:26;4.30;99.90
43641;DHT22;72791;52.546;13.570;2023-11-21T07:48:52;4.20;99.90
43641;DHT22;72791;52.546;13.570;2023-11-21T07:53:32;4.30;99.90
43641;DHT22;72791;52.546;13.570;2023-11-21T07:56:02;4.40;99.90
43641;DHT22;72791;52.546;13.570;2023-11-21T07:58:28;4.30;99.90
43641;DHT22;72791;52.546;13.570;2023-11-21T08:00:54;4.30;99.90
43641;DHT22;72791;52.546;13.570;2023-11-21T08:03:21;4.40;99.90
43641;DHT22;72791;52.546;13.570;2023-11-21T08:05:47;4.40;99.90
43641;DHT22;72791;52.546;13.570;2023-11-21T08:08:12;4.40;99.90
43641;DHT22;72791;52.546;13.570;2023-11-21T08:10:38;4.50;99.90
43641;DHT22;72791;52.546;13.570;2023-11-21T08:13:07;4.50;99.90
43641;DHT22;72791;52.546;13.570;2023-11-21T08:15:34;4.50;99.90
43641;DHT22;72791;52.546;13.570;2023-11-21T08:18:02;4.50;99.90
43641;DHT22;72791;52.546;13.570;2023-11-21T08:20:28;4.40;99.90
43641;DHT22;72791;52.546;13.570;2023-11-21T08:22:53;4.50;99.90
43641;DHT22;72791;52.546;13.570;2023-11-21T08:25:20;4.50;99.90
43641;DHT22;72791;52.546;13.570;2023-11-21T08:27:49;4.50;99.90
43641;DHT22;72791;52.546;13.570;2023-11-21T08:30:16;4.40;99.90
43641;DHT22;72791;52.546;13.570;2023-11-21T08:32:42;4.40;99.90
43641;DHT22;72791;52.546;13.570;2023-11-21T08:35:08;4.40;99.90
43641;DHT22;72791;52.546;13.570;2023-11-21T08:37:34;4.40;99.90
43641;DHT22;72791;52.546;13.570;2023-11-21T08:40:03;4.40;99.90
43641;DHT22;72791;52.546;13.570;2023-11-21T08:42:29;4.40;99.90
43641;DHT22;72791;52.546;13.570;2023-11-21T08:44:56;4.40;99.90
43641;DHT22;72791;52.546;13.570;2023-11-21T08:47:24;4.40;99.90
43641;DHT22;72791;52.546;13.570;2023-11-21T08:49:52;4.30;99.90
43641;DHT22;72791;52.546;13.570;2023-11-21T08:52:19;4.40;99.90
43641;DHT22;72791;52.546;13.570;2023-11-21T08:54:48;4.30;99.90
43641;DHT22;72791;52.546;13.570;2023-11-21T08:57:24;4.30;99.90
43641;DHT22;72791;52.546;13.570;2023-11-21T08:59:50;4.20;99.90
43641;DHT22;72791;52.546;13.570;2023-11-21T09:02:21;4.30;99.90
43641;DHT22;72791;52.546;13.570;2023-11-21T09:04:49;4.40;99.90
43641;DHT22;72791;52.546;13.570;2023-11-21T09:07:17;4.40;99.90
43641;DHT22;72791;52.546;13.570;2023-11-21T09:09:46;4.40;99.90
43641;DHT22;72791;52.546;13.570;2023-11-21T09:12:13;4.40;99.90
43641;DHT22;72791;52.546;13.570;2023-11-21T09:14:39;4.40;99.90
43641;DHT22;72791;52.546;13.570;2023-11-21T09:17:05;4.50;99.90
43641;DHT22;72791;52.546;13.570;2023-11-21T09:19:39;4.60;99.90
43641;DHT22;72791;52.546;13.570;2023-11-21T09:22:05;4.70;99.90
43641;DHT22;72791;52.546;13.570;2023-11-21T09:24:33;4.70;99.90
43641;DHT22;72791;52.546;13.570;2023-11-21T09:27:00;4.80;99.90
43641;DHT22;72791;52.546;13.570;2023-11-21T09:29:27;4.80;99.90
43641;DHT22;72791;52.546;13.570;2023-11-21T09:31:52;4.70;99.90
43641;DHT22;72791;52.546;13.570;2023-11-21T09:34:23;4.70;99.90
43641;DHT22;72791;52.546;13.570;2023-11-21T09:36:48;4.70;99.90
43641;DHT22;72791;52.546;13.570;2023-11-21T09:39:15;4.70;99.90
43641;DHT22;72791;52.546;13.570;2023-11-21T09:41:57;4.70;99.90
43641;DHT22;72791;52.546;13.570;2023-11-21T09:44:39;4.70;99.90
43641;DHT22;72791;52.546;13.570;2023-11-21T09:47:09;4.60;99.90
43641;DHT22;72791;52.546;13.570;2023-11-21T09:49:46;4.60;99.90
43641;DHT22;72791;52.546;13.570;2023-11-21T09:52:22;4.60;99.90
43641;DHT22;72791;52.546;13.570;2023-11-21T09:54:50;4.50;99.90
43641;DHT22;72791;52.546;13.570;2023-11-21T09:57:17;4.40;99.90
43641;DHT22;72791;52.546;13.570;2023-11-21T09:59:45;4.40;99.90
43641;DHT22;72791;52.546;13.570;2023-11-21T10:02:12;4.30;99.90
43641;DHT22;72791;52.546;13.570;2023-11-21T10:04:39;4.30;99.90
43641;DHT22;72791;52.546;13.570;2023-11-21T10:07:05;4.40;99.90
43641;DHT22;72791;52.546;13.570;2023-11-21T10:09:36;4.30;99.90
43641;DHT22;72791;52.546;13.570;2023-11-21T10:12:06;4.30;99.90
43641;DHT22;72791;52.546;13.570;2023-11-21T10:14:36;4.30;99.90
43641;DHT22;72791;52.546;13.570;2023-11-21T10:17:05;4.30;99.90
43641;DHT22;72791;52.546;13.570;2023-11-21T10:19:35;4.30;99.90
43641;DHT22;72791;52.546;13.570;2023-11-21T10:22:02;4.30;99.90
43641;DHT22;72791;52.546;13.570;2023-11-21T10:24:29;4.30;99.90
43641;DHT22;72791;52.546;13.570;2023-11-21T10:26:54;4.30;99.90
43641;DHT22;72791;52.546;13.570;2023-11-21T10:29:20;4.30;99.90
43641;DHT22;72791;52.546;13.570;2023-11-21T10:31:51;4.30;99.90
43641;DHT22;72791;52.546;13.570;2023-11-21T10:34:19;4.20;99.90
43641;DHT22;72791;52.546;13.570;2023-11-21T10:36:46;4.20;99.90
43641;DHT22;72791;52.546;13.570;2023-11-21T10:39:19;4.10;99.90
43641;DHT22;72791;52.546;13.570;2023-11-21T10:41:46;4.20;99.90
43641;DHT22;72791;52.546;13.570;2023-11-21T10:44:16;4.10;99.90
43641;DHT22;72791;52.546;13.570;2023-11-21T10:46:53;4.10;99.90
43641;DHT22;72791;52.546;13.570;2023-11-21T10:49:25;4.10;99.90
43641;DHT22;72791;52.546;13.570;2023-11-21T10:51:55;4.00;99.90
43641;DHT22;72791;52.546;13.570;2023-11-21T10:54:25;4.10;99.90
43641;DHT22;72791;52.546;13.570;2023-11-21T10:56:56;4.00;99.90
43641;DHT22;72791;52.546;13.570;2023-11-21T10:59:22;4.10;99.90
43641;DHT22;72791;52.546;13.570;2023-11-21T11:01:51;4.10;99.90
43641;DHT22;72791;52.546;13.570;2023-11-21T11:04:22;4.10;99.90
43641;DHT22;72791;52.546;13.570;2023-11-21T11:06:55;4.10;99.90
43641;DHT22;72791;52.546;13.570;2023-11-21T11:09:23;4.10;99.90
43641;DHT22;72791;52.546;13.570;2023-11-21T11:11:48;4.10;99.90
43641;DHT22;72791;52.546;13.570;2023-11-21T11:14:15;4.10;99.90
43641;DHT22;72791;52.546;13.570;2023-11-21T11:16:41;4.10;99.90
43641;DHT22;72791;52.546;13.570;2023-11-21T11:19:09;4.00;99.90
43641;DHT22;72791;52.546;13.570;2023-11-21T11:22:03;4.00;99.90
43641;DHT22;72791;52.546;13.570;2023-11-21T11:25:03;3.90;99.90
43641;DHT22;72791;52.546;13.570;2023-11-21T11:27:54;3.90;99.90
43641;DHT22;72791;52.546;13.570;2023-11-21T11:36:22;4.10;99.90
43641;DHT22;72791;52.546;13.570;2023-11-21T11:38:46;4.30;99.90
43641;DHT22;72791;52.546;13.570;2023-11-21T11:41:11;4.20;99.90
43641;DHT22;72791;52.546;13.570;2023-11-21T11:43:37;4.20;99.90
43641;DHT22;72791;52.546;13.570;2023-11-21T11:46:11;4.10;99.90
43641;DHT22;72791;52.546;13.570;2023-11-21T11:48:41;4.20;99.90
43641;DHT22;72791;52.546;13.570;2023-11-21T11:51:11;4.10;99.90
43641;DHT22;72791;52.546;13.570;2023-11-21T11:53:40;4.20;99.90
43641;DHT22;72791;52.546;13.570;2023-11-21T11:56:25;4.10;99.90
43641;DHT22;72791;52.546;13.570;2023-11-21T11:58:57;4.10;99.90
43641;DHT22;72791;52.546;13.570;2023-11-21T12:01:25;4.10;99.90
43641;DHT22;72791;52.546;13.570;2023-11-21T12:07:00;4.10;99.90
43641;DHT22;72791;52.546;13.570;2023-11-21T12:09:31;4.10;99.90
43641;DHT22;72791;52.546;13.570;2023-11-21T12:11:58;4.00;99.90
43641;DHT22;72791;52.546;13.570;2023-11-21T12:14:24;4.00;99.90
43641;DHT22;72791;52.546;13.570;2023-11-21T12:16:51;4.10;99.90
43641;DHT22;72791;52.546;13.570;2023-11-21T12:19:17;4.10;99.90
43641;DHT22;72791;52.546;13.570;2023-11-21T12:21:45;4.10;99.90
43641;DHT22;72791;52.546;13.570;2023-11-21T12:24:11;4.00;99.90
43641;DHT22;72791;52.546;13.570;2023-11-21T12:26:42;4.00;99.90
43641;DHT22;72791;52.546;13.570;2023-11-21T12:29:29;4.00;99.90
43641;DHT22;72791;52.546;13.570;2023-11-21T12:32:18;3.90;99.90
43641;DHT22;72791;52.546;13.570;2023-11-21T12:34:47;3.90;99.90
43641;DHT22;72791;52.546;13.570;2023-11-21T12:37:13;3.90;99.90
43641;DHT22;72791;52.546;13.570;2023-11-21T12:39:39;3.90;99.90
43641;DHT22;72791;52.546;13.570;2023-11-21T12:42:05;3.70;99.90
43641;DHT22;72791;52.546;13.570;2023-11-21T12:44:33;3.80;99.90
43641;DHT22;72791;52.546;13.570;2023-11-21T12:46:59;3.80;99.90
43641;DHT22;72791;52.546;13.570;2023-11-21T12:49:25;3.80;99.90
43641;DHT22;72791;52.546;13.570;2023-11-21T12:51:53;3.80;99.90
43641;DHT22;72791;52.546;13.570;2023-11-21T12:54:19;3.80;99.90
43641;DHT22;72791;52.546;13.570;2023-11-21T12:56:46;3.70;99.90
43641;DHT22;72791;52.546;13.570;2023-11-21T12:59:16;3.70;99.90
43641;DHT22;72791;52.546;13.570;2023-11-21T13:01:43;3.70;99.90
43641;DHT22;72791;52.546;13.570;2023-11-21T13:04:09;3.80;99.90
43641;DHT22;72791;52.546;13.570;2023-11-21T13:06:36;3.80;99.90
43641;DHT22;72791;52.546;13.570;2023-11-21T13:09:07;3.60;99.90
43641;DHT22;72791;52.546;13.570;2023-11-21T13:11:37;3.60;99.90
43641;DHT22;72791;52.546;13.570;2023-11-21T13:14:06;3.60;99.90
43641;DHT22;72791;52.546;13.570;2023-11-21T13:16:31;3.60;99.90
43641;DHT22;72791;52.546;13.570;2023-11-21T13:18:58;3.60;99.90
43641;DHT22;72791;52.546;13.570;2023-11-21T13:21:25;3.60;99.90
43641;DHT22;72791;52.546;13.570;2023-11-21T13:23:55;3.60;99.90
43641;DHT22;72791;52.546;13.570;2023-11-21T13:26:25;3.60;99.90
43641;DHT22;72791;52.546;13.570;2023-11-21T13:28:58;3.60;99.90
43641;DHT22;72791;52.546;13.570;2023-11-21T13:31:25;3.50;99.90
43641;DHT22;72791;52.546;13.570;2023-11-21T13:33:54;3.50;99.90
43641;DHT22;72791;52.546;13.570;2023-11-21T13:36:24;3.40;99.90
43641;DHT22;72791;52.546;13.570;2023-11-21T13:38:51;3.30;99.90
43641;DHT22;72791;52.546;13.570;2023-11-21T13:41:18;3.30;99.90
43641;DHT22;72791;52.546;13.570;2023-11-21T13:43:44;3.30;99.90
43641;DHT22;72791;52.546;13.570;2023-11-21T13:46:19;3.30;99.90
43641;DHT22;72791;52.546;13.570;2023-11-21T13:48:48;3.20;99.90
43641;DHT22;72791;52.546;13.570;2023-11-21T13:51:22;3.20;99.90
43641;DHT22;72791;52.546;13.570;2023-11-21T13:53:56;3.20;99.90
43641;DHT22;72791;52.546;13.570;2023-11-21T13:56:21;3.20;99.90
43641;DHT22;72791;52.546;13.570;2023-11-21T13:58:51;3.00;99.90
43641;DHT22;72791;52.546;13.570;2023-11-21T14:01:21;2.90;99.90
43641;DHT22;72791;52.546;13.570;2023-11-21T14:03:56;2.90;99.90
43641;DHT22;72791;52.546;13.570;2023-11-21T14:06:38;2.80;99.90
43641;DHT22;72791;52.546;13.570;2023-11-21T14:09:20;2.90;99.90
43641;DHT22;72791;52.546;13.570;2023-11-21T14:11:54;2.80;99.90
43641;DHT22;72791;52.546;13.570;2023-11-21T14:14:23;2.80;99.90
43641;DHT22;72791;52.546;13.570;2023-11-21T14:16:51;2.70;99.90
43641;DHT22;72791;52.546;13.570;2023-11-21T14:19:18;2.70;99.90
43641;DHT22;72791;52.546;13.570;2023-11-21T14:21:44;2.70;99.90
43641;DHT22;72791;52.546;13.570;2023-11-21T14:24:14;2.80;99.90
43641;DHT22;72791;52.546;13.570;2023-11-21T14:26:44;2.70;99.90
43641;DHT22;72791;52.546;13.570;2023-11-21T14:29:12;2.70;99.90
43641;DHT22;72791;52.546;13.570;2023-11-21T14:31:43;2.60;99.90
43641;DHT22;72791;52.546;13.570;2023-11-21T14:34:09;2.60;99.90
43641;DHT22;72791;52.546;13.570;2023-11-21T14:36:36;2.60;99.90
43641;DHT22;72791;52.546;13.570;2023-11-21T14:39:06;2.60;99.90
43641;DHT22;72791;52.546;13.570;2023-11-21T14:41:35;2.50;99.90
43641;DHT22;72791;52.546;13.570;2023-11-21T14:44:02;2.50;99.90
43641;DHT22;72791;52.546;13.570;2023-11-21T14:46:37;2.50;99.90
43641;DHT22;72791;52.546;13.570;2023-11-21T14:49:05;2.50;99.90
43641;DHT22;72791;52.546;13.570;2023-11-21T14:51:52;2.40;99.90
43641;DHT22;72791;52.546;13.570;2023-11-21T14:54:32;2.40;99.90
43641;DHT22;72791;52.546;13.570;2023-11-21T14:57:07;2.30;99.90
43641;DHT22;72791;52.546;13.570;2023-11-21T14:59:37;2.20;99.90
43641;DHT22;72791;52.546;13.570;2023-11-21T15:02:03;2.30;99.90
43641;DHT22;72791;52.546;13.570;2023-11-21T15:04:42;2.30;99.90
43641;DHT22;72791;52.546;13.570;2023-11-21T15:07:09;2.20;99.90
43641;DHT22;72791;52.546;13.570;2023-11-21T15:09:36;2.30;99.90
43641;DHT22;72791;52.546;13.570;2023-11-21T15:12:06;2.30;99.90
43641;DHT22;72791;52.546;13.570;2023-11-21T15:14:42;2.30;99.90
43641;DHT22;72791;52.546;13.570;2023-11-21T15:17:09;2.40;99.90
43641;DHT22;72791;52.546;13.570;2023-11-21T15:19:35;2.30;99.90
43641;DHT22;72791;52.546;13.570;2023-11-21T15:22:02;2.20;99.90
43641;DHT22;72791;52.546;13.570;2023-11-21T15:24:29;2.20;99.90
43641;DHT22;72791;52.546;13.570;2023-11-21T15:26:55;2.20;99.90
43641;DHT22;72791;52.546;13.570;2023-11-21T15:29:21;2.20;99.90
43641;DHT22;72791;52.546;13.570;2023-11-21T15:31:48;2.20;99.90
43641;DHT22;72791;52.546;13.570;2023-11-21T15:34:15;2.20;99.90
43641;DHT22;72791;52.546;13.570;2023-11-21T15:36:41;2.10;99.90
43641;DHT22;72791;52.546;13.570;2023-11-21T15:39:07;2.10;99.90
43641;DHT22;72791;52.546;13.570;2023-11-21T15:41:38;2.10;99.90
43641;DHT22;72791;52.546;13.570;2023-11-21T15:44:06;2.00;99.90
43641;DHT22;72791;52.546;13.570;2023-11-21T15:46:34;2.00;99.90